sensor_id;sensor_type;location;lat;lon;timestamp;pressure;altitude;pressure_sealevel;temperature;humidity
27864;BME280;15980;51.092;13.916;2022-07-04T00:01:18;98569.94;;;21.15;60.83
27864;BME280;15980;51.092;13.916;2022-07-04T00:06:21;98581.59;;;21.07;60.65
27864;BME280;15980;51.092;13.916;2022-07-04T00:11:26;98584.00;;;21.05;60.74
27864;BME280;15980;51.092;13.916;2022-07-04T00:16:29;98589.22;;;20.99;61.10
27864;BME280;15980;51.092;13.916;2022-07-04T00:21:32;98596.34;;;21.04;60.79
27864;BME280;15980;51.092;13.916;2022-07-04T00:26:36;98601.97;;;21.00;60.70
27864;BME280;15980;51.092;13.916;2022-07-04T00:31:39;98598.16;;;20.83;61.52
27864;BME280;15980;51.092;13.916;2022-07-04T00:36:42;98608.94;;;20.74;62.23
27864;BME280;15980;51.092;13.916;2022-07-04T00:41:47;98593.94;;;20.57;62.15
27864;BME280;15980;51.092;13.916;2022-07-04T00:46:50;98595.25;;;20.42;63.10
27864;BME280;15980;51.092;13.916;2022-07-04T00:51:53;98615.22;;;20.26;63.50
27864;BME280;15980;51.092;13.916;2022-07-04T00:56:58;98606.97;;;20.08;63.86
27864;BME280;15980;51.092;13.916;2022-07-04T01:02:02;98599.06;;;19.96;63.86
27864;BME280;15980;51.092;13.916;2022-07-04T01:07:05;98618.19;;;19.87;63.82
27864;BME280;15980;51.092;13.916;2022-07-04T01:12:10;98620.53;;;19.99;63.27
27864;BME280;15980;51.092;13.916;2022-07-04T01:17:13;98633.63;;;20.10;62.53
27864;BME280;15980;51.092;13.916;2022-07-04T01:22:18;98630.41;;;20.15;62.27
27864;BME280;15980;51.092;13.916;2022-07-04T01:27:22;98633.56;;;20.17;62.28
27864;BME280;15980;51.092;13.916;2022-07-04T01:32:25;98643.56;;;20.11;62.72
27864;BME280;15980;51.092;13.916;2022-07-04T01:37:29;98658.72;;;20.02;63.32
27864;BME280;15980;51.092;13.916;2022-07-04T01:42:33;98661.16;;;19.86;63.79
27864;BME280;15980;51.092;13.916;2022-07-04T01:47:36;98673.16;;;19.69;64.30
27864;BME280;15980;51.092;13.916;2022-07-04T01:52:41;98685.91;;;19.56;64.79
27864;BME280;15980;51.092;13.916;2022-07-04T01:57:44;98687.88;;;19.41;65.44
27864;BME280;15980;51.092;13.916;2022-07-04T02:02:47;98699.41;;;19.25;65.66
27864;BME280;15980;51.092;13.916;2022-07-04T02:07:52;98710.16;;;19.12;66.12
27864;BME280;15980;51.092;13.916;2022-07-04T02:12:55;98713.28;;;19.04;66.37
27864;BME280;15980;51.092;13.916;2022-07-04T02:18:05;98716.88;;;18.94;66.22
27864;BME280;15980;51.092;13.916;2022-07-04T02:23:10;98714.47;;;18.85;66.22
27864;BME280;15980;51.092;13.916;2022-07-04T02:28:13;98731.94;;;18.78;66.07
27864;BME280;15980;51.092;13.916;2022-07-04T02:33:16;98738.28;;;18.72;65.89
27864;BME280;15980;51.092;13.916;2022-07-04T02:38:20;98740.28;;;18.71;65.66
27864;BME280;15980;51.092;13.916;2022-07-04T02:43:23;98746.22;;;18.70;65.38
27864;BME280;15980;51.092;13.916;2022-07-04T02:48:26;98752.19;;;18.68;65.26
27864;BME280;15980;51.092;13.916;2022-07-04T02:53:31;98756.16;;;18.67;65.19
27864;BME280;15980;51.092;13.916;2022-07-04T02:58:34;98770.75;;;18.61;65.35
27864;BME280;15980;51.092;13.916;2022-07-04T03:03:37;98764.00;;;18.58;65.33
27864;BME280;15980;51.092;13.916;2022-07-04T03:08:42;98776.69;;;18.56;65.75
27864;BME280;15980;51.092;13.916;2022-07-04T03:13:45;98785.03;;;18.56;65.95
27864;BME280;15980;51.092;13.916;2022-07-04T03:18:48;98787.41;;;18.57;66.07
27864;BME280;15980;51.092;13.916;2022-07-04T03:23:52;98781.88;;;18.61;66.11
27864;BME280;15980;51.092;13.916;2022-07-04T03:29:01;98798.97;;;18.63;66.22
27864;BME280;15980;51.092;13.916;2022-07-04T03:34:04;98795.47;;;18.76;65.88
27864;BME280;15980;51.092;13.916;2022-07-04T03:39:09;98795.09;;;18.85;65.49
27864;BME280;15980;51.092;13.916;2022-07-04T03:44:12;98785.97;;;18.92;65.34
27864;BME280;15980;51.092;13.916;2022-07-04T03:49:15;98795.91;;;18.89;65.40
27864;BME280;15980;51.092;13.916;2022-07-04T03:54:19;98818.94;;;18.97;65.23
27864;BME280;15980;51.092;13.916;2022-07-04T03:59:22;98815.38;;;19.00;64.92
27864;BME280;15980;51.092;13.916;2022-07-04T04:04:25;98832.84;;;18.93;65.28
27864;BME280;15980;51.092;13.916;2022-07-04T04:09:47;98819.75;;;19.01;65.12
27864;BME280;15980;51.092;13.916;2022-07-04T04:14:51;98826.56;;;19.10;65.15
27864;BME280;15980;51.092;13.916;2022-07-04T04:19:54;98827.69;;;18.99;65.80
27864;BME280;15980;51.092;13.916;2022-07-04T04:24:58;98825.31;;;19.04;65.72
27864;BME280;15980;51.092;13.916;2022-07-04T04:30:01;98838.09;;;19.09;65.71
27864;BME280;15980;51.092;13.916;2022-07-04T04:35:05;98830.88;;;18.97;66.35
27864;BME280;15980;51.092;13.916;2022-07-04T04:40:11;98839.63;;;19.03;66.66
27864;BME280;15980;51.092;13.916;2022-07-04T04:45:14;98842.06;;;19.15;66.60
27864;BME280;15980;51.092;13.916;2022-07-04T04:50:17;98847.66;;;19.33;66.39
27864;BME280;15980;51.092;13.916;2022-07-04T04:55:22;98854.03;;;19.48;66.17
27864;BME280;15980;51.092;13.916;2022-07-04T05:00:25;98855.66;;;19.84;64.93
27864;BME280;15980;51.092;13.916;2022-07-04T05:05:28;98882.75;;;19.98;64.76
27864;BME280;15980;51.092;13.916;2022-07-04T05:10:32;98881.91;;;20.19;64.51
27864;BME280;15980;51.092;13.916;2022-07-04T05:15:35;98889.09;;;19.95;65.36
27864;BME280;15980;51.092;13.916;2022-07-04T05:20:38;98899.44;;;19.84;66.05
27864;BME280;15980;51.092;13.916;2022-07-04T05:25:43;98887.03;;;19.45;67.69
27864;BME280;15980;51.092;13.916;2022-07-04T05:30:46;98889.41;;;19.43;68.16
27864;BME280;15980;51.092;13.916;2022-07-04T05:35:49;98898.53;;;19.33;69.31
27864;BME280;15980;51.092;13.916;2022-07-04T05:40:53;98894.25;;;19.54;68.95
27864;BME280;15980;51.092;13.916;2022-07-04T05:45:56;98895.81;;;19.51;69.64
27864;BME280;15980;51.092;13.916;2022-07-04T05:50:59;98899.44;;;19.80;69.27
27864;BME280;15980;51.092;13.916;2022-07-04T05:56:05;98912.47;;;19.44;69.27
27864;BME280;15980;51.092;13.916;2022-07-04T06:01:08;98915.31;;;19.58;69.10
27864;BME280;15980;51.092;13.916;2022-07-04T06:06:12;98915.38;;;20.01;68.34
27864;BME280;15980;51.092;13.916;2022-07-04T06:11:16;98926.91;;;19.99;67.40
27864;BME280;15980;51.092;13.916;2022-07-04T06:16:20;98919.34;;;20.11;67.32
27864;BME280;15980;51.092;13.916;2022-07-04T06:21:23;98909.38;;;20.24;66.74
27864;BME280;15980;51.092;13.916;2022-07-04T06:26:28;98918.13;;;20.51;66.13
27864;BME280;15980;51.092;13.916;2022-07-04T06:31:31;98927.28;;;20.58;65.67
27864;BME280;15980;51.092;13.916;2022-07-04T06:36:34;98925.16;;;20.98;65.49
27864;BME280;15980;51.092;13.916;2022-07-04T06:41:39;98927.56;;;20.96;64.86
27864;BME280;15980;51.092;13.916;2022-07-04T06:46:42;98929.94;;;21.01;64.72
27864;BME280;15980;51.092;13.916;2022-07-04T06:51:45;98938.28;;;21.08;65.18
27864;BME280;15980;51.092;13.916;2022-07-04T06:56:50;98916.25;;;21.39;64.14
27864;BME280;15980;51.092;13.916;2022-07-04T07:02:00;98919.06;;;21.31;62.95
27864;BME280;15980;51.092;13.916;2022-07-04T07:07:03;98925.03;;;21.37;62.52
27864;BME280;15980;51.092;13.916;2022-07-04T07:12:08;98925.81;;;21.41;62.29
27864;BME280;15980;51.092;13.916;2022-07-04T07:17:11;98922.16;;;21.48;62.22
27864;BME280;15980;51.092;13.916;2022-07-04T07:22:14;98923.25;;;21.68;61.35
27864;BME280;15980;51.092;13.916;2022-07-04T07:27:19;98916.47;;;21.69;61.38
27864;BME280;15980;51.092;13.916;2022-07-04T07:32:22;98919.84;;;21.94;59.54
27864;BME280;15980;51.092;13.916;2022-07-04T07:37:25;98930.16;;;22.12;59.50
27864;BME280;15980;51.092;13.916;2022-07-04T07:42:30;98932.75;;;22.33;58.23
27864;BME280;15980;51.092;13.916;2022-07-04T07:47:33;98928.38;;;22.29;57.07
27864;BME280;15980;51.092;13.916;2022-07-04T07:52:36;98939.69;;;22.14;57.83
27864;BME280;15980;51.092;13.916;2022-07-04T07:57:41;98918.06;;;22.22;58.16
27864;BME280;15980;51.092;13.916;2022-07-04T08:02:48;98930.88;;;22.19;56.70
27864;BME280;15980;51.092;13.916;2022-07-04T08:08:08;98933.16;;;22.32;57.45
27864;BME280;15980;51.092;13.916;2022-07-04T08:13:14;98922.72;;;21.87;56.36
27864;BME280;15980;51.092;13.916;2022-07-04T08:18:17;98923.22;;;22.27;54.96
27864;BME280;15980;51.092;13.916;2022-07-04T08:23:20;98929.72;;;22.58;55.32
27864;BME280;15980;51.092;13.916;2022-07-04T08:28:24;98919.44;;;22.85;53.89
27864;BME280;15980;51.092;13.916;2022-07-04T08:33:27;98924.09;;;22.99;52.49
27864;BME280;15980;51.092;13.916;2022-07-04T08:38:33;98923.53;;;23.11;52.40
27864;BME280;15980;51.092;13.916;2022-07-04T08:43:38;98920.50;;;22.99;52.65
27864;BME280;15980;51.092;13.916;2022-07-04T08:48:42;98909.56;;;23.11;53.04
27864;BME280;15980;51.092;13.916;2022-07-04T08:53:49;98921.22;;;23.06;52.03
27864;BME280;15980;51.092;13.916;2022-07-04T08:58:55;98921.97;;;23.10;52.21
27864;BME280;15980;51.092;13.916;2022-07-04T09:03:59;98921.41;;;23.53;51.81
27864;BME280;15980;51.092;13.916;2022-07-04T09:09:03;98925.47;;;23.48;51.35
27864;BME280;15980;51.092;13.916;2022-07-04T09:14:09;98917.56;;;23.40;51.20
27864;BME280;15980;51.092;13.916;2022-07-04T09:19:19;98921.41;;;23.53;51.92
27864;BME280;15980;51.092;13.916;2022-07-04T09:24:46;98918.84;;;23.93;51.06
27864;BME280;15980;51.092;13.916;2022-07-04T09:29:52;98917.13;;;23.99;49.88
27864;BME280;15980;51.092;13.916;2022-07-04T09:34:56;98922.16;;;23.84;50.48
27864;BME280;15980;51.092;13.916;2022-07-04T09:39:59;98908.47;;;23.90;49.51
27864;BME280;15980;51.092;13.916;2022-07-04T09:45:08;98913.84;;;24.04;49.39
27864;BME280;15980;51.092;13.916;2022-07-04T09:50:14;98912.25;;;24.03;49.77
27864;BME280;15980;51.092;13.916;2022-07-04T09:55:25;98905.66;;;24.40;49.39
27864;BME280;15980;51.092;13.916;2022-07-04T10:00:32;98905.97;;;24.65;48.56
27864;BME280;15980;51.092;13.916;2022-07-04T10:05:36;98910.53;;;24.36;48.41
27864;BME280;15980;51.092;13.916;2022-07-04T10:10:39;98907.09;;;24.48;48.11
27864;BME280;15980;51.092;13.916;2022-07-04T10:15:45;98905.84;;;24.72;47.49
27864;BME280;15980;51.092;13.916;2022-07-04T10:20:49;98891.38;;;25.14;47.09
27864;BME280;15980;51.092;13.916;2022-07-04T10:25:53;98892.97;;;25.15;47.41
27864;BME280;15980;51.092;13.916;2022-07-04T10:30:58;98883.47;;;25.64;46.52
27864;BME280;15980;51.092;13.916;2022-07-04T10:36:03;98875.66;;;25.88;45.72
27864;BME280;15980;51.092;13.916;2022-07-04T10:41:08;98872.41;;;25.90;44.64
27864;BME280;15980;51.092;13.916;2022-07-04T10:46:29;98868.47;;;25.87;43.97
27864;BME280;15980;51.092;13.916;2022-07-04T10:51:41;98866.88;;;25.70;44.76
27864;BME280;15980;51.092;13.916;2022-07-04T10:56:47;98876.00;;;25.22;45.49
27864;BME280;15980;51.092;13.916;2022-07-04T11:02:27;98869.72;;;25.50;45.28
27864;BME280;15980;51.092;13.916;2022-07-04T11:07:58;98862.94;;;25.67;44.15
27864;BME280;15980;51.092;13.916;2022-07-04T11:13:06;98865.00;;;25.63;44.64
27864;BME280;15980;51.092;13.916;2022-07-04T11:18:11;98848.97;;;25.80;44.11
27864;BME280;15980;51.092;13.916;2022-07-04T11:23:17;98856.78;;;25.73;43.62
27864;BME280;15980;51.092;13.916;2022-07-04T11:28:22;98851.25;;;26.02;43.55
27864;BME280;15980;51.092;13.916;2022-07-04T11:33:54;98846.91;;;26.46;42.72
27864;BME280;15980;51.092;13.916;2022-07-04T11:38:59;98853.56;;;26.52;42.21
27864;BME280;15980;51.092;13.916;2022-07-04T11:44:04;98848.31;;;26.21;42.15
27864;BME280;15980;51.092;13.916;2022-07-04T11:49:26;98853.09;;;26.82;40.90
27864;BME280;15980;51.092;13.916;2022-07-04T11:54:30;98850.19;;;26.86;41.34
27864;BME280;15980;51.092;13.916;2022-07-04T11:59:55;98843.13;;;26.94;41.49
27864;BME280;15980;51.092;13.916;2022-07-04T12:05:00;98844.06;;;27.16;42.05
27864;BME280;15980;51.092;13.916;2022-07-04T12:10:09;98849.22;;;26.64;42.35
27864;BME280;15980;51.092;13.916;2022-07-04T12:15:12;98844.69;;;26.53;42.43
27864;BME280;15980;51.092;13.916;2022-07-04T12:20:17;98844.78;;;27.33;41.69
27864;BME280;15980;51.092;13.916;2022-07-04T12:25:25;98833.19;;;28.16;40.14
27864;BME280;15980;51.092;13.916;2022-07-04T12:30:31;98839.38;;;27.51;40.76
27864;BME280;15980;51.092;13.916;2022-07-04T12:35:44;98841.47;;;27.09;41.32
27864;BME280;15980;51.092;13.916;2022-07-04T12:40:54;98844.00;;;27.71;39.98
27864;BME280;15980;51.092;13.916;2022-07-04T12:45:57;98833.16;;;27.57;39.92
27864;BME280;15980;51.092;13.916;2022-07-04T12:51:10;98833.06;;;27.47;41.24
27864;BME280;15980;51.092;13.916;2022-07-04T12:56:28;98841.75;;;27.40;39.69
27864;BME280;15980;51.092;13.916;2022-07-04T13:01:31;98821.38;;;28.09;39.25
27864;BME280;15980;51.092;13.916;2022-07-04T13:06:36;98823.69;;;28.36;38.06
27864;BME280;15980;51.092;13.916;2022-07-04T13:11:40;98830.28;;;28.07;37.90
27864;BME280;15980;51.092;13.916;2022-07-04T13:17:00;98833.28;;;28.38;37.33
27864;BME280;15980;51.092;13.916;2022-07-04T13:22:04;98811.63;;;28.35;37.10
27864;BME280;15980;51.092;13.916;2022-07-04T13:27:07;98826.00;;;28.28;38.03
27864;BME280;15980;51.092;13.916;2022-07-04T13:32:10;98825.53;;;28.17;38.35
27864;BME280;15980;51.092;13.916;2022-07-04T13:37:15;98833.69;;;28.50;37.41
27864;BME280;15980;51.092;13.916;2022-07-04T13:42:19;98849.41;;;27.40;38.96
27864;BME280;15980;51.092;13.916;2022-07-04T13:47:36;98829.66;;;26.44;39.72
27864;BME280;15980;51.092;13.916;2022-07-04T13:52:40;98833.31;;;26.12;40.95
27864;BME280;15980;51.092;13.916;2022-07-04T13:57:44;98826.75;;;26.02;41.10
27864;BME280;15980;51.092;13.916;2022-07-04T14:02:47;98820.34;;;26.02;40.52
27864;BME280;15980;51.092;13.916;2022-07-04T14:07:52;98817.72;;;26.23;39.33
27864;BME280;15980;51.092;13.916;2022-07-04T14:12:55;98803.97;;;27.00;38.56
27864;BME280;15980;51.092;13.916;2022-07-04T14:17:58;98810.75;;;27.66;37.66
27864;BME280;15980;51.092;13.916;2022-07-04T14:23:02;98815.13;;;26.74;38.83
27864;BME280;15980;51.092;13.916;2022-07-04T14:28:05;98806.22;;;26.63;39.54
27864;BME280;15980;51.092;13.916;2022-07-04T14:33:08;98810.78;;;26.28;39.93
27864;BME280;15980;51.092;13.916;2022-07-04T14:38:13;98800.47;;;26.38;39.50
27864;BME280;15980;51.092;13.916;2022-07-04T14:43:16;98792.97;;;26.18;39.76
27864;BME280;15980;51.092;13.916;2022-07-04T14:48:20;98781.22;;;26.07;39.55
27864;BME280;15980;51.092;13.916;2022-07-04T14:53:24;98785.03;;;25.68;39.96
27864;BME280;15980;51.092;13.916;2022-07-04T14:58:28;98782.03;;;25.75;39.04
27864;BME280;15980;51.092;13.916;2022-07-04T15:03:31;98780.22;;;25.69;39.12
27864;BME280;15980;51.092;13.916;2022-07-04T15:08:35;98779.31;;;25.88;39.86
27864;BME280;15980;51.092;13.916;2022-07-04T15:13:38;98779.22;;;26.37;38.55
27864;BME280;15980;51.092;13.916;2022-07-04T15:18:41;98778.84;;;27.05;37.39
27864;BME280;15980;51.092;13.916;2022-07-04T15:23:46;98774.66;;;27.22;36.22
27864;BME280;15980;51.092;13.916;2022-07-04T15:29:06;98771.13;;;26.80;36.37
27864;BME280;15980;51.092;13.916;2022-07-04T15:34:13;98757.94;;;26.36;36.51
27864;BME280;15980;51.092;13.916;2022-07-04T15:39:17;98755.72;;;26.14;37.68
27864;BME280;15980;51.092;13.916;2022-07-04T15:44:20;98758.84;;;26.74;35.30
27864;BME280;15980;51.092;13.916;2022-07-04T15:49:24;98767.91;;;27.45;34.02
27864;BME280;15980;51.092;13.916;2022-07-04T15:54:28;98762.84;;;28.00;33.90
27864;BME280;15980;51.092;13.916;2022-07-04T15:59:31;98768.22;;;28.20;32.60
27864;BME280;15980;51.092;13.916;2022-07-04T16:04:34;98771.78;;;27.99;32.01
27864;BME280;15980;51.092;13.916;2022-07-04T16:09:40;98752.41;;;27.88;33.32
27864;BME280;15980;51.092;13.916;2022-07-04T16:14:43;98768.34;;;27.82;33.18
27864;BME280;15980;51.092;13.916;2022-07-04T16:19:46;98763.50;;;27.70;33.57
27864;BME280;15980;51.092;13.916;2022-07-04T16:24:51;98761.47;;;27.70;33.83
27864;BME280;15980;51.092;13.916;2022-07-04T16:29:54;98752.41;;;27.88;33.24
27864;BME280;15980;51.092;13.916;2022-07-04T16:34:58;98758.97;;;27.72;33.52
27864;BME280;15980;51.092;13.916;2022-07-04T16:40:03;98752.19;;;27.82;32.84
27864;BME280;15980;51.092;13.916;2022-07-04T16:45:07;98746.69;;;27.79;33.22
27864;BME280;15980;51.092;13.916;2022-07-04T16:50:10;98750.75;;;27.65;32.99
27864;BME280;15980;51.092;13.916;2022-07-04T16:55:15;98732.75;;;27.97;32.90
27864;BME280;15980;51.092;13.916;2022-07-04T17:00:20;98743.50;;;28.11;32.65
27864;BME280;15980;51.092;13.916;2022-07-04T17:05:23;98743.28;;;27.84;32.37
27864;BME280;15980;51.092;13.916;2022-07-04T17:10:28;98742.88;;;27.47;33.87
27864;BME280;15980;51.092;13.916;2022-07-04T17:15:31;98748.22;;;27.33;34.19
27864;BME280;15980;51.092;13.916;2022-07-04T17:20:34;98743.69;;;27.10;34.75
27864;BME280;15980;51.092;13.916;2022-07-04T17:25:41;98747.03;;;27.56;34.47
27864;BME280;15980;51.092;13.916;2022-07-04T17:30:47;98760.22;;;27.84;33.64
27864;BME280;15980;51.092;13.916;2022-07-04T17:35:55;98779.28;;;27.80;33.71
27864;BME280;15980;51.092;13.916;2022-07-04T17:41:01;98763.72;;;27.63;34.20
27864;BME280;15980;51.092;13.916;2022-07-04T17:46:21;98774.44;;;27.04;34.87
27864;BME280;15980;51.092;13.916;2022-07-04T17:51:24;98786.28;;;26.57;36.58
27864;BME280;15980;51.092;13.916;2022-07-04T17:56:29;98777.16;;;26.66;36.63
27864;BME280;15980;51.092;13.916;2022-07-04T18:01:32;98779.44;;;26.71;36.78
27864;BME280;15980;51.092;13.916;2022-07-04T18:06:35;98781.66;;;26.51;37.04
27864;BME280;15980;51.092;13.916;2022-07-04T18:11:40;98780.22;;;26.72;36.30
27864;BME280;15980;51.092;13.916;2022-07-04T18:16:43;98790.00;;;26.67;36.29
27864;BME280;15980;51.092;13.916;2022-07-04T18:21:46;98772.88;;;26.33;37.26
27864;BME280;15980;51.092;13.916;2022-07-04T18:26:51;98760.34;;;25.76;37.45
27864;BME280;15980;51.092;13.916;2022-07-04T18:31:55;98762.88;;;25.54;38.06
27864;BME280;15980;51.092;13.916;2022-07-04T18:36:58;98773.66;;;25.23;38.70
27864;BME280;15980;51.092;13.916;2022-07-04T18:42:03;98785.84;;;24.96;39.13
27864;BME280;15980;51.092;13.916;2022-07-04T18:47:23;98788.84;;;24.69;39.81
27864;BME280;15980;51.092;13.916;2022-07-04T18:52:27;98788.50;;;24.48;39.92
27864;BME280;15980;51.092;13.916;2022-07-04T18:57:32;98786.50;;;24.28;40.35
27864;BME280;15980;51.092;13.916;2022-07-04T19:02:34;98791.38;;;24.01;41.00
27864;BME280;15980;51.092;13.916;2022-07-04T19:07:38;98796.59;;;23.75;41.72
27864;BME280;15980;51.092;13.916;2022-07-04T19:12:42;98801.75;;;23.54;42.17
27864;BME280;15980;51.092;13.916;2022-07-04T19:17:45;98811.31;;;23.29;42.96
27864;BME280;15980;51.092;13.916;2022-07-04T19:22:48;98828.00;;;23.09;43.36
27864;BME280;15980;51.092;13.916;2022-07-04T19:27:53;98816.28;;;22.87;43.90
27864;BME280;15980;51.092;13.916;2022-07-04T19:32:56;98822.91;;;22.70;44.31
27864;BME280;15980;51.092;13.916;2022-07-04T19:37:59;98832.69;;;22.51;44.79
27864;BME280;15980;51.092;13.916;2022-07-04T19:43:04;98840.50;;;22.33;45.34
27864;BME280;15980;51.092;13.916;2022-07-04T19:48:09;98836.25;;;22.18;45.20
27864;BME280;15980;51.092;13.916;2022-07-04T19:53:14;98855.16;;;22.03;45.63
27864;BME280;15980;51.092;13.916;2022-07-04T19:58:19;98859.69;;;21.83;46.56
27864;BME280;15980;51.092;13.916;2022-07-04T20:03:22;98862.59;;;21.65;47.07
27864;BME280;15980;51.092;13.916;2022-07-04T20:08:25;98863.94;;;21.50;46.86
27864;BME280;15980;51.092;13.916;2022-07-04T20:13:30;98883.53;;;21.39;47.50
27864;BME280;15980;51.092;13.916;2022-07-04T20:18:33;98887.22;;;21.25;47.77
27864;BME280;15980;51.092;13.916;2022-07-04T20:23:36;98881.66;;;21.11;48.22
27864;BME280;15980;51.092;13.916;2022-07-04T20:28:40;98890.53;;;20.92;49.00
27864;BME280;15980;51.092;13.916;2022-07-04T20:33:44;98889.78;;;20.74;49.15
27864;BME280;15980;51.092;13.916;2022-07-04T20:38:47;98879.88;;;20.55;50.00
27864;BME280;15980;51.092;13.916;2022-07-04T20:43:51;98886.72;;;20.40;50.21
27864;BME280;15980;51.092;13.916;2022-07-04T20:48:54;98893.03;;;20.33;49.99
27864;BME280;15980;51.092;13.916;2022-07-04T20:53:58;98901.00;;;20.27;49.74
27864;BME280;15980;51.092;13.916;2022-07-04T20:59:05;98901.81;;;20.24;49.36
27864;BME280;15980;51.092;13.916;2022-07-04T21:04:08;98914.94;;;20.17;50.03
27864;BME280;15980;51.092;13.916;2022-07-04T21:09:12;98914.97;;;19.99;51.32
27864;BME280;15980;51.092;13.916;2022-07-04T21:14:16;98922.50;;;19.81;52.06
27864;BME280;15980;51.092;13.916;2022-07-04T21:19:19;98925.28;;;19.66;53.12
27864;BME280;15980;51.092;13.916;2022-07-04T21:24:22;98924.78;;;19.46;54.51
27864;BME280;15980;51.092;13.916;2022-07-04T21:29:27;98914.81;;;19.31;56.33
27864;BME280;15980;51.092;13.916;2022-07-04T21:34:30;98929.47;;;19.14;56.77
27864;BME280;15980;51.092;13.916;2022-07-04T21:39:33;98943.69;;;18.98;57.16
27864;BME280;15980;51.092;13.916;2022-07-04T21:44:37;98949.19;;;18.80;57.71
27864;BME280;15980;51.092;13.916;2022-07-04T21:49:41;98943.09;;;18.64;58.33
27864;BME280;15980;51.092;13.916;2022-07-04T21:54:43;98945.38;;;18.51;59.11
27864;BME280;15980;51.092;13.916;2022-07-04T21:59:48;98953.69;;;18.48;59.03
27864;BME280;15980;51.092;13.916;2022-07-04T22:04:51;98949.31;;;18.43;59.13
27864;BME280;15980;51.092;13.916;2022-07-04T22:09:54;98942.53;;;18.41;58.68
27864;BME280;15980;51.092;13.916;2022-07-04T22:14:59;98955.25;;;18.42;58.85
27864;BME280;15980;51.092;13.916;2022-07-04T22:20:02;98955.22;;;18.38;59.50
27864;BME280;15980;51.092;13.916;2022-07-04T22:25:06;98947.22;;;18.26;59.62
27864;BME280;15980;51.092;13.916;2022-07-04T22:30:12;98944.78;;;18.21;60.22
27864;BME280;15980;51.092;13.916;2022-07-04T22:35:15;98953.44;;;18.12;60.73
27864;BME280;15980;51.092;13.916;2022-07-04T22:40:18;98949.78;;;18.05;61.18
27864;BME280;15980;51.092;13.916;2022-07-04T22:45:22;98943.38;;;17.97;61.00
27864;BME280;15980;51.092;13.916;2022-07-04T22:50:25;98949.72;;;17.94;61.59
27864;BME280;15980;51.092;13.916;2022-07-04T22:55:29;98956.34;;;17.82;61.29
27864;BME280;15980;51.092;13.916;2022-07-04T23:00:33;98951.13;;;17.77;61.49
27864;BME280;15980;51.092;13.916;2022-07-04T23:05:36;98947.06;;;17.68;62.14
27864;BME280;15980;51.092;13.916;2022-07-04T23:10:39;98965.56;;;17.56;62.58
27864;BME280;15980;51.092;13.916;2022-07-04T23:15:44;98966.66;;;17.48;62.34
27864;BME280;15980;51.092;13.916;2022-07-04T23:20:47;98956.72;;;17.44;62.62
27864;BME280;15980;51.092;13.916;2022-07-04T23:25:50;98954.28;;;17.39;62.86
27864;BME280;15980;51.092;13.916;2022-07-04T23:30:54;98958.22;;;17.38;62.65
27864;BME280;15980;51.092;13.916;2022-07-04T23:35:58;98951.38;;;17.28;62.38
27864;BME280;15980;51.092;13.916;2022-07-04T23:41:01;98950.16;;;17.25;63.10
27864;BME280;15980;51.092;13.916;2022-07-04T23:46:11;98951.66;;;17.19;63.32
27864;BME280;15980;51.092;13.916;2022-07-04T23:51:14;98954.78;;;17.14;64.03
27864;BME280;15980;51.092;13.916;2022-07-04T23:56:17;98950.78;;;17.12;64.79
